Time;durP1;ratioP1;P1;durP2;ratioP2;P2;SDS_P1;SDS_P2;PMS_P1;PMS_P2;Temp;Humidity;BMP_temperature;BMP_pressure;BME280_temperature;BME280_humidity;BME280_pressure;Samples;Min_cycle;Max_cycle;Signal;HPM_P1;HPM_P2
2023/12/30 00:02:13;;;;;;;;;;;;;;;-144.99;nan;52625.44;5106063;27;19923;-76
2023/12/30 00:04:39;;;;;;;;;;;;;;;-144.99;nan;52603.00;5110844;27;20451;-75
2023/12/30 00:07:06;;;;;;;;;;;;;;;-144.99;nan;52623.38;5109437;28;20022;-76
2023/12/30 00:09:32;;;;;;;;;;;;;;;-144.99;nan;52566.31;5116818;27;19971;-75
2023/12/30 00:11:58;;;;;;;;;;;;;;;-144.99;nan;52607.09;5118542;27;19935;-76
2023/12/30 00:14:25;;;;;;;;;;;;;;;-144.99;nan;52574.47;5109884;27;19952;-76
2023/12/30 00:16:53;;;;;;;;;;;;;;;-144.99;nan;52615.25;5107545;27;20022;-76
2023/12/30 00:19:19;;;;;;;;;;;;;;;-144.99;nan;52645.81;5118122;27;19967;-76
2023/12/30 00:21:46;;;;;;;;;;;;;;;-144.99;nan;52619.31;5117403;27;19963;-75
2023/12/30 00:24:12;;;;;;;;;;;;;;;-144.99;nan;52594.84;5114177;27;20025;-75
2023/12/30 00:26:38;;;;;;;;;;;;;;;-144.99;nan;52605.03;5108442;27;20023;-75
2023/12/30 00:29:05;;;;;;;;;;;;;;;-144.99;nan;52600.97;5114578;27;19963;-74
2023/12/30 00:31:32;;;;;;;;;;;;;;;-144.99;nan;52631.53;5114739;27;20290;-73
2023/12/30 00:34:01;;;;;;;;;;;;;;;-144.99;nan;52619.31;5117097;27;19955;-73
2023/12/30 00:36:27;;;;;;;;;;;;;;;-144.99;nan;52643.78;5110344;27;19979;-74
2023/12/30 00:38:54;;;;;;;;;;;;;;;-144.99;nan;52617.28;5115418;27;19963;-75
2023/12/30 00:41:21;;;;;;;;;;;;;;;-144.99;nan;52584.66;5116210;27;19931;-74
2023/12/30 00:43:47;;;;;;;;;;;;;;;-144.99;nan;52605.03;5116609;27;19927;-73
2023/12/30 00:46:14;;;;;;;;;;;;;;;-144.99;nan;52590.78;5114496;28;19927;-73
2023/12/30 00:48:40;;;;;;;;;;;;;;;-144.99;nan;52619.31;5108339;27;19924;-72
2023/12/30 00:51:08;;;;;;;;;;;;;;;-144.99;nan;52594.84;5114793;28;20014;-73
2023/12/30 00:53:34;;;;;;;;;;;;;;;-144.99;nan;52603.00;5130393;28;19928;-72
2023/12/30 00:56:01;;;;;;;;;;;;;;;-144.99;nan;52613.19;5126530;28;20372;-73
2023/12/30 00:58:27;;;;;;;;;;;;;;;-144.99;nan;52615.25;5106946;28;19986;-74
2023/12/30 01:00:53;;;;;;;;;;;;;;;-144.99;nan;52631.53;5118460;28;20030;-72
2023/12/30 01:03:20;;;;;;;;;;;;;;;-144.99;nan;52615.25;5121119;28;19952;-73
2023/12/30 01:05:46;;;;;;;;;;;;;;;-144.99;nan;52590.78;5114115;28;20015;-74
2023/12/30 01:08:14;;;;;;;;;;;;;;;-144.99;nan;52594.84;5107049;28;19932;-76
2023/12/30 01:10:41;;;;;;;;;;;;;;;-144.99;nan;52660.09;5112002;28;19961;-74
2023/12/30 01:13:08;;;;;;;;;;;;;;;-144.99;nan;52615.25;5098233;28;19928;-74
2023/12/30 01:15:34;;;;;;;;;;;;;;;-144.99;nan;52631.53;5104690;28;19928;-74
2023/12/30 01:18:01;;;;;;;;;;;;;;;-144.99;nan;52647.84;5107169;28;20388;-75
2023/12/30 01:20:28;;;;;;;;;;;;;;;-144.99;nan;52598.94;5097667;28;20400;-75
2023/12/30 01:22:54;;;;;;;;;;;;;;;-144.99;nan;52609.13;5108148;28;20448;-76
2023/12/30 01:25:22;;;;;;;;;;;;;;;-144.99;nan;52627.47;5119291;28;20419;-77
2023/12/30 01:27:48;;;;;;;;;;;;;;;-144.99;nan;52664.16;5127187;28;20346;-76
2023/12/30 01:30:15;;;;;;;;;;;;;;;-144.99;nan;52627.47;5119917;28;19993;-73
2023/12/30 01:32:41;;;;;;;;;;;;;;;-144.99;nan;52615.25;4755267;28;10000021;-77
2023/12/30 01:35:08;;;;;;;;;;;;;;;-144.99;nan;52613.19;5107426;28;19927;-78
2023/12/30 01:37:34;;;;;;;;;;;;;;;-144.99;nan;52619.31;5091332;28;19936;-76
2023/12/30 01:40:01;;;;;;;;;;;;;;;-144.99;nan;52639.69;5100914;28;19924;-76
2023/12/30 01:42:29;;;;;;;;;;;;;;;-144.99;nan;52615.25;5113347;28;20026;-76
2023/12/30 01:44:55;;;;;;;;;;;;;;;-144.99;nan;52603.00;5100989;28;19924;-74
2023/12/30 01:47:22;;;;;;;;;;;;;;;-144.99;nan;52647.84;5113680;28;20026;-74
2023/12/30 01:49:48;;;;;;;;;;;;;;;-144.99;nan;52643.78;5092568;28;20205;-75
2023/12/30 01:52:15;;;;;;;;;;;;;;;-144.99;nan;52598.94;5100051;28;19928;-75
2023/12/30 01:54:42;;;;;;;;;;;;;;;-144.99;nan;52631.53;5085771;28;19928;-75
2023/12/30 01:57:09;;;;;;;;;;;;;;;-144.99;nan;52607.09;5098392;28;20462;-77
2023/12/30 01:59:37;;;;;;;;;;;;;;;-144.99;nan;52627.47;5098978;27;19928;-76
2023/12/30 02:02:04;;;;;;;;;;;;;;;-144.99;nan;52621.34;5120562;27;20114;-80
2023/12/30 02:04:30;;;;;;;;;;;;;;;-144.99;nan;52596.88;5122846;28;20444;-76
2023/12/30 02:06:57;;;;;;;;;;;;;;;-144.99;nan;52619.31;5109476;27;19979;-78
2023/12/30 02:09:23;;;;;;;;;;;;;;;-144.99;nan;52588.75;5118262;27;19966;-77
2023/12/30 02:11:50;;;;;;;;;;;;;;;-144.99;nan;52617.28;5100276;27;20019;-77
2023/12/30 02:14:23;;;;;;;;;;;;;;;-144.99;nan;52635.63;5093485;27;19973;-77
2023/12/30 02:16:50;;;;;;;;;;;;;;;-144.99;nan;52611.16;5106954;28;20412;-77
2023/12/30 02:19:17;;;;;;;;;;;;;;;-144.99;nan;52613.19;5097238;28;20018;-76
2023/12/30 02:21:43;;;;;;;;;;;;;;;-144.99;nan;52613.19;5110188;28;19931;-76
2023/12/30 02:24:11;;;;;;;;;;;;;;;-144.99;nan;52613.19;5097539;27;19974;-77
2023/12/30 02:26:39;;;;;;;;;;;;;;;-144.99;nan;52594.84;5111403;28;19974;-76
2023/12/30 02:29:05;;;;;;;;;;;;;;;-144.99;nan;52643.78;5103581;28;19924;-75
2023/12/30 02:31:32;;;;;;;;;;;;;;;-144.99;nan;52603.00;5114035;27;21646;-76
2023/12/30 02:33:58;;;;;;;;;;;;;;;-144.99;nan;52607.09;5101147;27;19924;-78
2023/12/30 02:36:25;;;;;;;;;;;;;;;-144.99;nan;52611.16;5110739;27;20003;-79
2023/12/30 02:38:51;;;;;;;;;;;;;;;-144.99;nan;52566.31;5121355;27;20011;-81
2023/12/30 02:41:19;;;;;;;;;;;;;;;-144.99;nan;52627.47;5117747;27;20003;-80
2023/12/30 02:43:51;;;;;;;;;;;;;;;-144.99;nan;52594.84;5104964;27;20058;-77
2023/12/30 02:46:18;;;;;;;;;;;;;;;-144.99;nan;52603.00;5117764;27;20026;-78
2023/12/30 02:48:44;;;;;;;;;;;;;;;-144.99;nan;52651.94;5110274;27;20002;-74
2023/12/30 02:51:14;;;;;;;;;;;;;;;-144.99;nan;52635.63;5111892;28;20409;-78
2023/12/30 02:53:41;;;;;;;;;;;;;;;-144.99;nan;52623.38;5111491;27;20502;-77
2023/12/30 02:56:07;;;;;;;;;;;;;;;-144.99;nan;52584.66;5114485;27;19955;-78
2023/12/30 02:58:35;;;;;;;;;;;;;;;-144.99;nan;52631.53;5112338;27;19966;-76
2023/12/30 03:01:02;;;;;;;;;;;;;;;-144.99;nan;52611.16;5107859;27;19970;-77
2023/12/30 03:03:28;;;;;;;;;;;;;;;-144.99;nan;52607.09;5093984;28;19989;-76
2023/12/30 03:05:55;;;;;;;;;;;;;;;-144.99;nan;52615.25;5093679;28;20006;-77
2023/12/30 03:08:21;;;;;;;;;;;;;;;-144.99;nan;52635.63;5107536;28;19950;-80
2023/12/30 03:10:48;;;;;;;;;;;;;;;-144.99;nan;52598.94;5120194;27;20345;-78
2023/12/30 03:13:14;;;;;;;;;;;;;;;-144.99;nan;52596.88;5108205;27;20018;-76
2023/12/30 03:15:42;;;;;;;;;;;;;;;-144.99;nan;52605.03;5101944;27;19978;-76
2023/12/30 03:18:08;;;;;;;;;;;;;;;-144.99;nan;52619.31;5111201;27;20022;-75
2023/12/30 03:20:35;;;;;;;;;;;;;;;-144.99;nan;52615.25;5112572;27;19932;-78
2023/12/30 03:23:01;;;;;;;;;;;;;;;-144.99;nan;52625.44;5106351;28;20044;-76
2023/12/30 03:25:27;;;;;;;;;;;;;;;-144.99;nan;52590.78;5114278;27;19971;-74
2023/12/30 03:27:54;;;;;;;;;;;;;;;-144.99;nan;52572.44;5107783;27;19970;-74
2023/12/30 03:30:20;;;;;;;;;;;;;;;-144.99;nan;52598.94;5112395;27;20019;-76
2023/12/30 03:32:48;;;;;;;;;;;;;;;-144.99;nan;52603.00;5119537;27;20030;-77
2023/12/30 03:35:15;;;;;;;;;;;;;;;-144.99;nan;52590.78;5113472;27;20024;-76
2023/12/30 03:37:41;;;;;;;;;;;;;;;-144.99;nan;52576.50;5097069;28;19928;-78
2023/12/30 03:40:08;;;;;;;;;;;;;;;-144.99;nan;52598.94;5112559;27;19934;-76
2023/12/30 03:42:35;;;;;;;;;;;;;;;-144.99;nan;52590.78;5114174;28;19938;-78
2023/12/30 03:45:02;;;;;;;;;;;;;;;-144.99;nan;52582.63;5107810;28;20407;-77
2023/12/30 03:47:28;;;;;;;;;;;;;;;-144.99;nan;52619.31;5110113;28;19959;-77
2023/12/30 03:49:56;;;;;;;;;;;;;;;-144.99;nan;52590.78;5108257;28;20027;-79
2023/12/30 03:52:22;;;;;;;;;;;;;;;-144.99;nan;52603.00;5113124;27;19923;-77
2023/12/30 03:54:49;;;;;;;;;;;;;;;-144.99;nan;52603.00;5111130;27;20014;-77
2023/12/30 03:57:15;;;;;;;;;;;;;;;-144.99;nan;52639.69;5105943;28;19928;-75
2023/12/30 03:59:41;;;;;;;;;;;;;;;-144.99;nan;52603.00;5112601;27;20023;-76
2023/12/30 04:02:08;;;;;;;;;;;;;;;-144.99;nan;52598.94;5110092;27;20018;-75
2023/12/30 04:04:35;;;;;;;;;;;;;;;-144.99;nan;52611.16;5107996;28;20023;-75
2023/12/30 04:07:03;;;;;;;;;;;;;;;-144.99;nan;52635.63;5107521;27;19940;-76
2023/12/30 04:09:29;;;;;;;;;;;;;;;-144.99;nan;52619.31;5101674;28;20038;-76
2023/12/30 04:11:55;;;;;;;;;;;;;;;-144.99;nan;52651.94;5117324;27;20306;-75
2023/12/30 04:14:22;;;;;;;;;;;;;;;-144.99;nan;52631.53;5109415;27;20298;-81
2023/12/30 04:16:48;;;;;;;;;;;;;;;-144.99;nan;52578.53;5116706;28;19956;-71
2023/12/30 04:19:16;;;;;;;;;;;;;;;-144.99;nan;52613.19;5101440;28;19984;-74
2023/12/30 04:21:42;;;;;;;;;;;;;;;-144.99;nan;52600.97;5105383;28;20094;-74
2023/12/30 04:24:10;;;;;;;;;;;;;;;-144.99;nan;52574.47;5119863;22;19931;-68
2023/12/30 04:26:37;;;;;;;;;;;;;;;-144.99;nan;52619.31;5111325;28;19935;-68
2023/12/30 04:29:03;;;;;;;;;;;;;;;-144.99;nan;52615.25;5097133;28;20011;-69
2023/12/30 04:31:29;;;;;;;;;;;;;;;-144.99;nan;52586.69;5107765;28;20366;-69
2023/12/30 04:33:56;;;;;;;;;;;;;;;-144.99;nan;52619.31;5106100;28;20010;-70
2023/12/30 04:36:23;;;;;;;;;;;;;;;-144.99;nan;52619.31;5102633;28;19928;-70
2023/12/30 04:38:49;;;;;;;;;;;;;;;-144.99;nan;52609.13;5108734;28;20022;-69
2023/12/30 04:41:17;;;;;;;;;;;;;;;-144.99;nan;52580.59;5108800;28;20026;-69
2023/12/30 04:43:43;;;;;;;;;;;;;;;-144.99;nan;52619.31;5100550;28;19971;-68
2023/12/30 04:46:11;;;;;;;;;;;;;;;-144.99;nan;52607.09;5108696;28;20008;-69
2023/12/30 04:48:38;;;;;;;;;;;;;;;-144.99;nan;52611.16;5103158;28;19971;-70
2023/12/30 04:51:04;;;;;;;;;;;;;;;-144.99;nan;52594.84;5108929;28;19923;-70
2023/12/30 04:53:31;;;;;;;;;;;;;;;-144.99;nan;52607.09;5107408;28;19951;-70
2023/12/30 04:55:57;;;;;;;;;;;;;;;-144.99;nan;52578.53;5099996;28;19930;-70
2023/12/30 04:58:25;;;;;;;;;;;;;;;-144.99;nan;52598.94;5106364;28;19927;-70
2023/12/30 05:00:51;;;;;;;;;;;;;;;-144.99;nan;52586.69;5106667;28;20368;-69
2023/12/30 05:03:18;;;;;;;;;;;;;;;-144.99;nan;52611.16;5113159;28;19968;-68
2023/12/30 05:05:44;;;;;;;;;;;;;;;-144.99;nan;52611.16;5120148;28;19936;-68
2023/12/30 05:08:11;;;;;;;;;;;;;;;-144.99;nan;52578.53;5107442;28;19970;-68
2023/12/30 05:10:37;;;;;;;;;;;;;;;-144.99;nan;52623.38;5107813;28;19985;-68
2023/12/30 05:13:04;;;;;;;;;;;;;;;-144.99;nan;52590.78;5106119;28;20345;-69
2023/12/30 05:15:32;;;;;;;;;;;;;;;-144.99;nan;52647.84;5107489;28;19963;-69
2023/12/30 05:17:58;;;;;;;;;;;;;;;-144.99;nan;52598.94;5101063;28;20008;-68
2023/12/30 05:20:25;;;;;;;;;;;;;;;-144.99;nan;52609.13;5108798;28;19962;-68
2023/12/30 05:22:51;;;;;;;;;;;;;;;-144.99;nan;52582.63;5107009;28;19928;-68
2023/12/30 05:25:18;;;;;;;;;;;;;;;-144.99;nan;52631.53;5108434;28;19924;-68
2023/12/30 05:27:44;;;;;;;;;;;;;;;-144.99;nan;52619.31;5095299;28;20474;-68
2023/12/30 05:30:11;;;;;;;;;;;;;;;-144.99;nan;52570.38;5098316;28;20026;-68
2023/12/30 05:32:39;;;;;;;;;;;;;;;-144.99;nan;52586.69;5108393;28;19989;-70
2023/12/30 05:35:05;;;;;;;;;;;;;;;-144.99;nan;52586.69;5112299;28;20010;-70
2023/12/30 05:37:32;;;;;;;;;;;;;;;-144.99;nan;52596.88;5111835;28;19924;-70
2023/12/30 05:39:58;;;;;;;;;;;;;;;-144.99;nan;52603.00;5105636;28;19967;-70
2023/12/30 05:42:24;;;;;;;;;;;;;;;-144.99;nan;52590.78;5122789;28;19924;-69
2023/12/30 05:44:51;;;;;;;;;;;;;;;-144.99;nan;52582.63;5104846;28;20276;-70
2023/12/30 05:47:17;;;;;;;;;;;;;;;-144.99;nan;52598.94;5111851;28;19959;-69
2023/12/30 05:49:45;;;;;;;;;;;;;;;-144.99;nan;52560.19;5107155;28;20039;-68
2023/12/30 05:52:11;;;;;;;;;;;;;;;-144.99;nan;52635.63;5111036;28;20224;-69
2023/12/30 05:54:38;;;;;;;;;;;;;;;-144.99;nan;52596.88;5111696;28;19923;-69
2023/12/30 05:57:04;;;;;;;;;;;;;;;-144.99;nan;52611.16;5107675;28;19982;-68
2023/12/30 05:59:31;;;;;;;;;;;;;;;-144.99;nan;52572.44;5104845;28;20361;-69
2023/12/30 06:01:58;;;;;;;;;;;;;;;-144.99;nan;52590.78;5104671;28;19963;-69
2023/12/30 06:04:24;;;;;;;;;;;;;;;-144.99;nan;52623.38;5111476;28;19927;-70
2023/12/30 06:06:53;;;;;;;;;;;;;;;-144.99;nan;52603.00;5101749;28;20002;-70
2023/12/30 06:09:19;;;;;;;;;;;;;;;-144.99;nan;52570.38;5104182;28;20010;-70
2023/12/30 06:11:46;;;;;;;;;;;;;;;-144.99;nan;52613.19;5105349;28;21079;-69
2023/12/30 06:14:12;;;;;;;;;;;;;;;-144.99;nan;52560.19;5095929;28;20048;-69
2023/12/30 06:16:39;;;;;;;;;;;;;;;-144.99;nan;52603.00;5099981;28;20018;-69
2023/12/30 06:19:05;;;;;;;;;;;;;;;-144.99;nan;52594.84;5105534;28;19924;-70
2023/12/30 06:21:31;;;;;;;;;;;;;;;-144.99;nan;52619.31;5103624;28;19924;-69
2023/12/30 06:23:59;;;;;;;;;;;;;;;-144.99;nan;52574.47;5096959;28;20372;-69
2023/12/30 06:26:26;;;;;;;;;;;;;;;-144.99;nan;52592.81;5100733;28;20102;-69
2023/12/30 06:28:52;;;;;;;;;;;;;;;-144.99;nan;52574.47;5108364;28;19926;-69
2023/12/30 06:31:18;;;;;;;;;;;;;;;-144.99;nan;52582.63;5108955;28;19963;-69
2023/12/30 06:33:45;;;;;;;;;;;;;;;-144.99;nan;52586.69;5102377;28;19938;-69
2023/12/30 06:36:19;;;;;;;;;;;;;;;-144.99;nan;52574.47;5099389;28;19927;-69
2023/12/30 06:38:46;;;;;;;;;;;;;;;-144.99;nan;52570.38;5105470;28;20419;-68
2023/12/30 06:41:14;;;;;;;;;;;;;;;-144.99;nan;52588.75;5108444;28;19924;-69
2023/12/30 06:43:41;;;;;;;;;;;;;;;-144.99;nan;52586.69;5102375;28;19924;-67
2023/12/30 06:46:07;;;;;;;;;;;;;;;-144.99;nan;52570.38;5110907;28;20454;-69
2023/12/30 06:48:33;;;;;;;;;;;;;;;-144.99;nan;52584.66;5111051;28;20007;-69
2023/12/30 06:51:01;;;;;;;;;;;;;;;-144.99;nan;52562.25;5111480;28;19963;-69
2023/12/30 06:53:30;;;;;;;;;;;;;;;-144.99;nan;52582.63;5108136;28;19931;-71
2023/12/30 06:55:59;;;;;;;;;;;;;;;-144.99;nan;52574.47;5110706;28;19955;-71
2023/12/30 06:58:27;;;;;;;;;;;;;;;-144.99;nan;52578.53;5111800;28;20010;-71
2023/12/30 07:00:54;;;;;;;;;;;;;;;-144.99;nan;52564.28;5108544;28;19928;-70
2023/12/30 07:03:21;;;;;;;;;;;;;;;-144.99;nan;52611.16;5105101;28;19932;-70
2023/12/30 07:05:47;;;;;;;;;;;;;;;-144.99;nan;52619.31;5101011;28;20649;-68
2023/12/30 07:08:14;;;;;;;;;;;;;;;-144.99;nan;52611.16;5108999;28;20389;-69
2023/12/30 07:10:40;;;;;;;;;;;;;;;-144.99;nan;52578.53;5110642;28;19951;-69
2023/12/30 07:13:07;;;;;;;;;;;;;;;-144.99;nan;52578.53;5108493;28;20030;-69
2023/12/30 07:15:35;;;;;;;;;;;;;;;-144.99;nan;52582.63;5109576;28;19938;-69
2023/12/30 07:18:02;;;;;;;;;;;;;;;-144.99;nan;52607.09;5103487;28;20022;-68
2023/12/30 07:20:28;;;;;;;;;;;;;;;-144.99;nan;52574.47;5110200;28;20014;-68
2023/12/30 07:22:56;;;;;;;;;;;;;;;-144.99;nan;52586.69;5108537;28;20036;-67
2023/12/30 07:25:22;;;;;;;;;;;;;;;-144.99;nan;52592.81;5105000;28;19954;-68
2023/12/30 07:27:49;;;;;;;;;;;;;;;-144.99;nan;52603.00;5095002;28;19927;-68
2023/12/30 07:30:16;;;;;;;;;;;;;;;-144.99;nan;52584.66;5101023;28;19935;-69
2023/12/30 07:32:43;;;;;;;;;;;;;;;-144.99;nan;52570.38;5109723;28;19947;-69
2023/12/30 07:35:09;;;;;;;;;;;;;;;-144.99;nan;52617.28;5106633;28;20031;-69
2023/12/30 07:37:35;;;;;;;;;;;;;;;-144.99;nan;52586.69;5109536;28;20022;-69
2023/12/30 07:40:03;;;;;;;;;;;;;;;-144.99;nan;52560.19;5109442;28;19927;-69
2023/12/30 07:42:29;;;;;;;;;;;;;;;-144.99;nan;52578.53;5098676;28;19932;-69
2023/12/30 07:44:56;;;;;;;;;;;;;;;-144.99;nan;52578.53;5097534;28;19995;-69
2023/12/30 07:47:22;;;;;;;;;;;;;;;-144.99;nan;52588.75;5097963;28;19971;-70
2023/12/30 07:49:50;;;;;;;;;;;;;;;-144.99;nan;52627.47;5101841;28;19927;-69
2023/12/30 07:52:17;;;;;;;;;;;;;;;-144.99;nan;52545.94;5108157;28;20348;-69
2023/12/30 07:54:43;;;;;;;;;;;;;;;-144.99;nan;52611.16;5105901;28;19923;-69
2023/12/30 07:57:09;;;;;;;;;;;;;;;-144.99;nan;52558.16;5098504;28;19991;-67
2023/12/30 07:59:36;;;;;;;;;;;;;;;-144.99;nan;52586.69;5105365;28;20032;-67
2023/12/30 08:02:03;;;;;;;;;;;;;;;-144.99;nan;52586.69;5098509;28;19974;-68
2023/12/30 08:04:29;;;;;;;;;;;;;;;-144.99;nan;52627.47;5107761;28;20002;-68
2023/12/30 08:06:57;;;;;;;;;;;;;;;-144.99;nan;52582.63;5098756;28;19951;-70
2023/12/30 08:09:23;;;;;;;;;;;;;;;-144.99;nan;52603.00;5116214;28;19924;-70
2023/12/30 08:11:50;;;;;;;;;;;;;;;-144.99;nan;52590.78;5120913;28;19923;-70
2023/12/30 08:14:17;;;;;;;;;;;;;;;-144.99;nan;52582.63;5103249;28;19924;-70
2023/12/30 08:16:43;;;;;;;;;;;;;;;-144.99;nan;52543.91;5108612;28;19923;-70
2023/12/30 08:19:11;;;;;;;;;;;;;;;-144.99;nan;52570.38;5095636;28;20018;-71
2023/12/30 08:21:37;;;;;;;;;;;;;;;-144.99;nan;52570.38;5096236;28;19928;-70
2023/12/30 08:24:07;;;;;;;;;;;;;;;-144.99;nan;52570.38;5107895;28;20017;-70
2023/12/30 08:26:33;;;;;;;;;;;;;;;-144.99;nan;52607.09;5108794;28;20265;-70
2023/12/30 08:28:59;;;;;;;;;;;;;;;-144.99;nan;52627.47;5103154;28;20010;-69
2023/12/30 08:31:26;;;;;;;;;;;;;;;-144.99;nan;52619.31;5109066;28;20022;-70
2023/12/30 08:33:52;;;;;;;;;;;;;;;-144.99;nan;52576.50;5100169;28;20015;-70
2023/12/30 08:36:19;;;;;;;;;;;;;;;-144.99;nan;52603.00;5109355;28;20019;-69
2023/12/30 08:38:45;;;;;;;;;;;;;;;-144.99;nan;52580.59;5106134;28;20063;-69
2023/12/30 08:41:14;;;;;;;;;;;;;;;-144.99;nan;52623.38;5109090;28;19978;-70
2023/12/30 08:43:41;;;;;;;;;;;;;;;-144.99;nan;52562.25;5100298;28;20038;-71
2023/12/30 08:46:07;;;;;;;;;;;;;;;-144.99;nan;52582.63;5108486;28;20232;-71
2023/12/30 08:48:33;;;;;;;;;;;;;;;-144.99;nan;52517.41;5103957;28;20629;-71
2023/12/30 08:51:00;;;;;;;;;;;;;;;-144.99;nan;52564.28;5108268;28;20051;-70
2023/12/30 08:53:26;;;;;;;;;;;;;;;-144.99;nan;52566.31;5107149;28;19923;-70
2023/12/30 08:55:54;;;;;;;;;;;;;;;-144.99;nan;52607.09;5105933;28;20029;-71
2023/12/30 08:58:23;;;;;;;;;;;;;;;-144.99;nan;52574.47;5094513;28;19923;-70
2023/12/30 09:00:50;;;;;;;;;;;;;;;-144.99;nan;52574.47;5102675;28;20028;-71
2023/12/30 09:03:16;;;;;;;;;;;;;;;-144.99;nan;52607.09;5095403;28;19978;-70
2023/12/30 09:05:43;;;;;;;;;;;;;;;-144.99;nan;52607.09;5094248;28;20019;-69
2023/12/30 09:08:10;;;;;;;;;;;;;;;-144.99;nan;52558.16;5098957;28;20056;-69
2023/12/30 09:10:36;;;;;;;;;;;;;;;-144.99;nan;52578.53;5117782;28;19970;-69
2023/12/30 09:13:03;;;;;;;;;;;;;;;-144.99;nan;52631.53;5111244;28;19995;-69
2023/12/30 09:15:31;;;;;;;;;;;;;;;-144.99;nan;52617.28;5109353;28;20012;-70
2023/12/30 09:17:58;;;;;;;;;;;;;;;-144.99;nan;52623.38;5111092;28;19993;-69
2023/12/30 09:20:25;;;;;;;;;;;;;;;-144.99;nan;52598.94;5120718;28;20001;-71
2023/12/30 09:22:52;;;;;;;;;;;;;;;-144.99;nan;52590.78;5121330;28;19988;-71
2023/12/30 09:25:18;;;;;;;;;;;;;;;-144.99;nan;52592.81;5136484;27;19918;-72
2023/12/30 09:27:45;;;;;;;;;;;;;;;-144.99;nan;52594.84;5112419;28;20018;-71
2023/12/30 09:30:12;;;;;;;;;;;;;;;-144.99;nan;52586.69;5106036;28;20007;-71
2023/12/30 09:32:39;;;;;;;;;;;;;;;-144.99;nan;52566.31;5105596;28;19951;-71
2023/12/30 09:35:06;;;;;;;;;;;;;;;-144.99;nan;52639.69;5109463;28;20031;-68
2023/12/30 09:37:33;;;;;;;;;;;;;;;-144.99;nan;52611.16;5110223;28;20038;-71
2023/12/30 09:40:00;;;;;;;;;;;;;;;-144.99;nan;52570.38;5112565;28;19935;-70
2023/12/30 09:42:26;;;;;;;;;;;;;;;-144.99;nan;52578.53;5111789;28;20395;-71
2023/12/30 09:44:54;;;;;;;;;;;;;;;-144.99;nan;52603.00;5105867;28;20466;-71
2023/12/30 09:47:21;;;;;;;;;;;;;;;-144.99;nan;52607.09;5104465;28;20392;-70
2023/12/30 09:49:49;;;;;;;;;;;;;;;-144.99;nan;52570.38;5107859;28;19967;-70
2023/12/30 09:52:16;;;;;;;;;;;;;;;-144.99;nan;52560.19;5104433;28;20421;-75
2023/12/30 09:54:42;;;;;;;;;;;;;;;-144.99;nan;52582.63;5109737;28;20035;-72
2023/12/30 09:57:09;;;;;;;;;;;;;;;-144.99;nan;52576.50;5111934;28;20357;-73
2023/12/30 09:59:37;;;;;;;;;;;;;;;-144.99;nan;52582.63;5119795;28;19985;-73
2023/12/30 10:02:06;;;;;;;;;;;;;;;-144.99;nan;52562.25;5117334;28;19932;-73
2023/12/30 10:04:32;;;;;;;;;;;;;;;-144.99;nan;52580.59;5111064;28;19928;-73
2023/12/30 10:07:01;;;;;;;;;;;;;;;-144.99;nan;52582.63;5110559;28;20368;-72
2023/12/30 10:09:28;;;;;;;;;;;;;;;-144.99;nan;52603.00;5104536;28;19936;-71
2023/12/30 10:11:54;;;;;;;;;;;;;;;-144.99;nan;52590.78;5105806;28;19966;-71
2023/12/30 10:14:21;;;;;;;;;;;;;;;-144.99;nan;52582.63;5105816;28;20454;-71
2023/12/30 10:16:47;;;;;;;;;;;;;;;-144.99;nan;52562.25;5107158;28;20460;-71
2023/12/30 10:19:15;;;;;;;;;;;;;;;-144.99;nan;52607.09;5103261;28;19936;-72
2023/12/30 10:21:41;;;;;;;;;;;;;;;-144.99;nan;52578.53;5102394;28;19984;-72
2023/12/30 10:24:09;;;;;;;;;;;;;;;-144.99;nan;52607.09;5109345;28;20006;-72
2023/12/30 10:26:39;;;;;;;;;;;;;;;-144.99;nan;52562.25;5103933;28;19967;-72
2023/12/30 10:29:06;;;;;;;;;;;;;;;-144.99;nan;52570.38;5100112;28;19935;-72
2023/12/30 10:31:32;;;;;;;;;;;;;;;-144.99;nan;52607.09;5102816;28;19972;-72
2023/12/30 10:33:59;;;;;;;;;;;;;;;-144.99;nan;52617.28;5106885;28;20034;-71
2023/12/30 10:36:27;;;;;;;;;;;;;;;-144.99;nan;52611.16;5105550;28;19962;-73
2023/12/30 10:38:55;;;;;;;;;;;;;;;-144.99;nan;52572.44;5120758;27;19912;-71
2023/12/30 10:41:22;;;;;;;;;;;;;;;-144.99;nan;52613.19;5128726;27;19932;-71
2023/12/30 10:43:49;;;;;;;;;;;;;;;-144.99;nan;52533.69;5104397;28;20015;-72
2023/12/30 10:46:18;;;;;;;;;;;;;;;-144.99;nan;52590.78;5111337;28;19988;-71
2023/12/30 10:48:47;;;;;;;;;;;;;;;-144.99;nan;52603.00;5107543;28;19951;-71
2023/12/30 10:51:15;;;;;;;;;;;;;;;-144.99;nan;52594.84;5098862;28;20018;-71
2023/12/30 10:53:45;;;;;;;;;;;;;;;-144.99;nan;52545.94;5101866;28;19966;-71
2023/12/30 10:56:13;;;;;;;;;;;;;;;-144.99;nan;52598.94;5104592;28;19974;-72
2023/12/30 10:58:41;;;;;;;;;;;;;;;-144.99;nan;52603.00;5111362;28;19928;-72
2023/12/30 11:01:08;;;;;;;;;;;;;;;-144.99;nan;52617.28;5104041;28;20094;-72
2023/12/30 11:03:35;;;;;;;;;;;;;;;-144.99;nan;52576.50;5102404;28;19932;-72
2023/12/30 11:06:04;;;;;;;;;;;;;;;-144.99;nan;52598.94;5096347;28;19966;-72
2023/12/30 11:08:31;;;;;;;;;;;;;;;-144.99;nan;52594.84;5110023;28;19959;-72
2023/12/30 11:10:59;;;;;;;;;;;;;;;-144.99;nan;52566.31;5109848;28;19924;-72
2023/12/30 11:13:26;;;;;;;;;;;;;;;-144.99;nan;52574.47;5103312;28;20244;-72
2023/12/30 11:15:54;;;;;;;;;;;;;;;-144.99;nan;52570.38;5109513;28;20019;-72
2023/12/30 11:18:44;;;;;;;;;;;;;;;-144.99;nan;52607.09;5124144;28;19928;-71
2023/12/30 11:21:11;;;;;;;;;;;;;;;-144.99;nan;52582.63;5101009;28;19996;-71
2023/12/30 11:23:37;;;;;;;;;;;;;;;-144.99;nan;52611.16;5103544;28;19963;-72
2023/12/30 11:26:05;;;;;;;;;;;;;;;-144.99;nan;52598.94;5107758;28;20038;-72
2023/12/30 11:28:33;;;;;;;;;;;;;;;-144.99;nan;52598.94;5094445;28;20385;-73
2023/12/30 11:31:01;;;;;;;;;;;;;;;-144.99;nan;52582.63;5106059;28;20368;-71
2023/12/30 11:33:28;;;;;;;;;;;;;;;-144.99;nan;52578.53;5103699;28;20458;-71
2023/12/30 11:35:55;;;;;;;;;;;;;;;-144.99;nan;52627.47;5097683;28;20140;-72
2023/12/30 11:38:24;;;;;;;;;;;;;;;-144.99;nan;52574.47;5109867;28;19924;-72
2023/12/30 11:40:51;;;;;;;;;;;;;;;-144.99;nan;52580.59;5109280;28;20254;-71
2023/12/30 11:43:18;;;;;;;;;;;;;;;-144.99;nan;52588.75;5091996;28;19939;-72
2023/12/30 11:45:44;;;;;;;;;;;;;;;-144.99;nan;52566.31;5107831;28;20345;-72
2023/12/30 11:48:12;;;;;;;;;;;;;;;-144.99;nan;52556.13;5099611;28;20210;-73
2023/12/30 11:50:38;;;;;;;;;;;;;;;-144.99;nan;52570.38;5109891;28;19975;-73
2023/12/30 11:53:05;;;;;;;;;;;;;;;-144.99;nan;52541.84;5108006;28;19938;-72
2023/12/30 11:55:31;;;;;;;;;;;;;;;-144.99;nan;52564.28;5123813;28;20000;-72
2023/12/30 11:57:57;;;;;;;;;;;;;;;-144.99;nan;52566.31;5108784;28;20019;-71
2023/12/30 12:00:26;;;;;;;;;;;;;;;-144.99;nan;52558.16;5108257;28;19963;-72
2023/12/30 12:02:52;;;;;;;;;;;;;;;-144.99;nan;52586.69;5103257;28;19923;-72
2023/12/30 12:05:20;;;;;;;;;;;;;;;-144.99;nan;52586.69;5116679;28;19961;-72
2023/12/30 12:07:47;;;;;;;;;;;;;;;-144.99;nan;52562.25;5112563;28;19924;-72
2023/12/30 12:10:14;;;;;;;;;;;;;;;-144.99;nan;52556.13;5109228;28;19955;-72
2023/12/30 12:12:42;;;;;;;;;;;;;;;-144.99;nan;52570.38;5108858;28;19992;-73
2023/12/30 12:15:09;;;;;;;;;;;;;;;-144.99;nan;52574.47;5099389;28;20409;-73
2023/12/30 12:17:35;;;;;;;;;;;;;;;-144.99;nan;52598.94;5101463;28;19981;-71
2023/12/30 12:20:04;;;;;;;;;;;;;;;-144.99;nan;52566.31;5108977;28;20022;-71
2023/12/30 12:22:32;;;;;;;;;;;;;;;-144.99;nan;52541.84;5107785;28;19936;-71
2023/12/30 12:25:01;;;;;;;;;;;;;;;-144.99;nan;52627.47;5108325;28;20037;-71
2023/12/30 12:27:28;;;;;;;;;;;;;;;-144.99;nan;52590.78;5099935;28;19970;-72
2023/12/30 12:29:55;;;;;;;;;;;;;;;-144.99;nan;52582.63;5110514;28;19955;-70
2023/12/30 12:32:21;;;;;;;;;;;;;;;-144.99;nan;52578.53;5122385;28;19949;-72
2023/12/30 12:34:48;;;;;;;;;;;;;;;-144.99;nan;52603.00;5090052;28;19924;-70
2023/12/30 12:37:14;;;;;;;;;;;;;;;-144.99;nan;52576.50;5104859;28;19998;-71
2023/12/30 12:39:42;;;;;;;;;;;;;;;-144.99;nan;52598.94;5101349;28;19924;-72
2023/12/30 12:42:09;;;;;;;;;;;;;;;-144.99;nan;52586.69;5107922;28;19984;-71
2023/12/30 12:44:35;;;;;;;;;;;;;;;-144.99;nan;52603.00;5101831;28;20022;-72